createdAt,value
2018-07-30T00:03:06.137Z,1.73
2018-07-30T00:08:09.547Z,1.93
2018-07-30T00:13:12.888Z,1.60
2018-07-30T00:18:16.304Z,1.70
2018-07-30T00:23:19.677Z,1.80
2018-07-30T00:28:23.020Z,1.53
2018-07-30T00:33:26.381Z,1.63
2018-07-30T00:38:29.842Z,1.80
2018-07-30T00:43:33.228Z,1.50
2018-07-30T00:48:36.591Z,1.40
2018-07-30T00:53:39.957Z,2.00
2018-07-30T00:58:43.347Z,1.80
2018-07-30T01:03:46.699Z,1.50
2018-07-30T01:08:50.056Z,1.83
2018-07-30T01:13:53.413Z,1.90
2018-07-30T01:18:56.988Z,1.87
2018-07-30T01:24:00.362Z,1.70
2018-07-30T01:29:03.748Z,1.70
2018-07-30T01:34:06.887Z,1.63
2018-07-30T01:39:10.414Z,1.80
2018-07-30T01:44:13.784Z,1.53
2018-07-30T01:49:17.203Z,1.80
2018-07-30T01:54:20.574Z,1.83
2018-07-30T01:59:23.956Z,1.77
2018-07-30T02:04:27.327Z,1.90
2018-07-30T02:09:30.747Z,1.50
2018-07-30T02:14:34.118Z,1.70
2018-07-30T02:19:37.488Z,1.67
2018-07-30T02:24:40.868Z,1.67
2018-07-30T02:29:44.232Z,1.87
2018-07-30T02:34:47.593Z,1.83
2018-07-30T02:39:50.965Z,1.70
2018-07-30T02:44:54.361Z,1.90
2018-07-30T02:49:57.751Z,1.43
2018-07-30T02:55:01.133Z,1.70
2018-07-30T03:00:05.416Z,1.60
2018-07-30T03:05:08.798Z,1.67
2018-07-30T03:10:12.214Z,1.63
2018-07-30T03:15:15.602Z,1.70
2018-07-30T03:20:19.008Z,1.80
2018-07-30T03:25:22.387Z,1.80
2018-07-30T03:30:25.861Z,1.80
2018-07-30T03:35:29.488Z,1.70
2018-07-30T03:40:32.856Z,1.90
2018-07-30T03:45:36.232Z,1.80
2018-07-30T03:50:39.631Z,1.83
2018-07-30T03:55:43.000Z,1.47
2018-07-30T04:00:46.454Z,1.33
2018-07-30T04:05:49.842Z,1.50
2018-07-30T04:10:53.305Z,1.63
2018-07-30T04:15:56.749Z,1.73
2018-07-30T04:21:00.153Z,1.47
2018-07-30T04:26:03.511Z,1.77
2018-07-30T04:31:06.950Z,1.70
2018-07-30T04:36:10.400Z,1.87
2018-07-30T04:41:13.756Z,2.03
2018-07-30T04:46:17.125Z,1.60
2018-07-30T04:51:21.317Z,1.70
2018-07-30T04:56:24.736Z,2.00
2018-07-30T05:01:28.121Z,1.60
2018-07-30T05:06:31.481Z,1.80
2018-07-30T05:11:35.606Z,1.67
2018-07-30T05:16:38.980Z,1.80
2018-07-30T05:21:42.344Z,1.63
2018-07-30T05:26:45.720Z,1.60
2018-07-30T05:31:49.188Z,2.20
2018-07-30T05:36:52.594Z,1.90
2018-07-30T05:41:55.955Z,1.87
2018-07-30T05:46:59.308Z,1.97
2018-07-30T05:52:02.696Z,1.90
2018-07-30T05:57:06.436Z,2.00
2018-07-30T06:02:09.813Z,2.10
2018-07-30T06:07:13.440Z,1.80
2018-07-30T06:12:16.888Z,1.97
2018-07-30T06:17:20.248Z,1.63
2018-07-30T06:22:24.684Z,1.80
2018-07-30T06:27:28.088Z,2.20
2018-07-30T06:32:31.478Z,2.13
2018-07-30T06:37:34.980Z,1.90
2018-07-30T06:42:38.405Z,1.70
2018-07-30T06:47:41.782Z,1.73
2018-07-30T06:52:45.152Z,2.00
2018-07-30T06:57:48.508Z,2.07
2018-07-30T07:02:51.890Z,2.20
2018-07-30T07:07:55.279Z,1.80
2018-07-30T07:12:58.657Z,1.70
2018-07-30T07:18:02.016Z,1.97
2018-07-30T07:23:05.279Z,1.70
2018-07-30T07:28:08.635Z,2.20
2018-07-30T07:33:11.994Z,1.72
2018-07-30T07:38:15.384Z,1.90
2018-07-30T07:43:18.775Z,2.15
2018-07-30T07:48:22.140Z,2.12
2018-07-30T07:53:25.577Z,1.90
2018-07-30T07:58:29.024Z,2.05
2018-07-30T08:03:32.406Z,2.20
2018-07-30T08:08:35.826Z,2.15
2018-07-30T08:13:39.162Z,2.22
2018-07-30T08:18:42.538Z,2.17
2018-07-30T08:23:45.963Z,2.05
2018-07-30T08:28:49.336Z,2.05
2018-07-30T08:33:52.805Z,2.10
2018-07-30T08:38:56.172Z,2.17
2018-07-30T08:43:59.638Z,2.17
2018-07-30T08:49:03.023Z,2.25
2018-07-30T08:54:06.464Z,2.20
2018-07-30T08:59:09.873Z,2.10
2018-07-30T09:04:13.266Z,3.00
2018-07-30T09:09:16.717Z,2.00
2018-07-30T09:14:20.128Z,2.12
2018-07-30T09:19:23.578Z,2.30
2018-07-30T09:24:26.947Z,2.17
2018-07-30T09:29:30.468Z,2.33
2018-07-30T09:34:33.833Z,1.92
2018-07-30T09:39:37.301Z,1.98
2018-07-30T09:44:40.667Z,2.05
2018-07-30T09:49:44.018Z,2.00
2018-07-30T09:54:47.372Z,2.10
2018-07-30T09:59:50.725Z,2.40
2018-07-30T10:04:55.578Z,2.35
2018-07-30T10:09:59.096Z,2.65
2018-07-30T10:15:02.726Z,2.30
2018-07-30T10:20:06.420Z,2.15
2018-07-30T10:25:09.907Z,2.60
2018-07-30T10:30:14.450Z,2.30
2018-07-30T10:35:17.857Z,2.40
2018-07-30T10:40:21.204Z,2.25
2018-07-30T10:45:24.870Z,2.60
2018-07-30T10:50:28.338Z,2.35
2018-07-30T10:55:31.768Z,2.33
2018-07-30T11:00:35.223Z,3.17
2018-07-30T11:05:38.661Z,2.55
2018-07-30T11:10:42.064Z,2.85
2018-07-30T11:15:45.480Z,2.85
2018-07-30T11:20:48.900Z,2.83
2018-07-30T11:25:51.991Z,2.55
2018-07-30T11:30:55.376Z,2.55
2018-07-30T11:35:58.788Z,2.15
2018-07-30T11:41:02.289Z,2.33
2018-07-30T11:46:05.732Z,2.15
2018-07-30T11:51:09.117Z,2.37
2018-07-30T11:56:12.545Z,2.20
2018-07-30T12:01:15.993Z,2.20
2018-07-30T12:06:19.388Z,2.42
2018-07-30T12:11:22.787Z,1.95
2018-07-30T12:16:26.166Z,2.20
2018-07-30T12:21:29.568Z,1.90
2018-07-30T12:26:33.021Z,2.17
2018-07-30T12:31:36.430Z,2.20
2018-07-30T12:36:39.793Z,2.05
2018-07-30T12:41:43.218Z,2.45
2018-07-30T12:46:46.344Z,2.25
2018-07-30T12:51:49.729Z,2.20
2018-07-30T12:56:53.186Z,2.17
2018-07-30T13:01:56.573Z,1.98
2018-07-30T13:07:00.044Z,2.20
2018-07-30T13:12:03.527Z,2.05
2018-07-30T13:17:06.999Z,2.42
2018-07-30T13:22:10.468Z,2.08
2018-07-30T13:27:13.929Z,2.17
2018-07-30T13:32:17.308Z,2.60
2018-07-30T13:37:20.785Z,2.70
2018-07-30T13:42:24.249Z,2.30
2018-07-30T13:47:27.666Z,2.30
2018-07-30T13:52:31.137Z,2.10
2018-07-30T13:57:34.550Z,2.47
2018-07-30T14:02:37.961Z,2.45
2018-07-30T14:07:41.473Z,2.45
2018-07-30T14:12:45.000Z,2.10
2018-07-30T14:17:48.424Z,2.12
2018-07-30T14:22:51.881Z,2.02
2018-07-30T14:27:55.318Z,2.05
2018-07-30T14:32:58.807Z,2.22
2018-07-30T14:38:02.308Z,2.17
2018-07-30T14:43:05.765Z,2.58
2018-07-30T14:48:09.178Z,2.30
2018-07-30T14:53:12.602Z,2.42
2018-07-30T14:58:16.069Z,2.60
2018-07-30T15:03:19.485Z,2.30
2018-07-30T15:08:22.908Z,2.22
2018-07-30T15:13:26.385Z,2.35
2018-07-30T15:18:29.849Z,2.47
2018-07-30T15:23:33.257Z,2.00
2018-07-30T15:28:36.717Z,2.02
2018-07-30T15:33:39.830Z,1.90
2018-07-30T15:38:42.931Z,2.12
2018-07-30T15:43:46.088Z,2.15
2018-07-30T15:48:49.523Z,2.27
2018-07-30T15:53:53.043Z,2.52
2018-07-30T15:58:56.460Z,2.47
2018-07-30T16:03:59.977Z,1.98
2018-07-30T16:09:08.304Z,2.02
2018-07-30T16:14:11.713Z,1.80
2018-07-30T16:19:15.123Z,2.20
2018-07-30T16:24:18.614Z,2.27
2018-07-30T16:29:22.033Z,2.02
2018-07-30T16:34:25.484Z,2.50
2018-07-30T16:39:29.182Z,2.15
2018-07-30T16:44:45.987Z,2.37
2018-07-30T16:49:49.447Z,2.10
2018-07-30T16:54:52.888Z,2.35
2018-07-30T16:59:56.320Z,2.35
2018-07-30T17:04:59.788Z,2.05
2018-07-30T17:10:03.253Z,2.70
2018-07-30T17:15:07.083Z,2.20
2018-07-30T17:20:12.637Z,2.27
2018-07-30T17:25:16.079Z,2.35
2018-07-30T17:30:20.496Z,2.25
2018-07-30T17:35:23.932Z,2.17
2018-07-30T17:40:27.381Z,2.52
2018-07-30T17:45:30.784Z,2.30
2018-07-30T17:50:34.192Z,2.42
2018-07-30T17:55:37.582Z,2.25
2018-07-30T18:00:40.981Z,2.27
2018-07-30T18:05:44.423Z,2.05
2018-07-30T18:10:47.812Z,2.15
2018-07-30T18:15:51.193Z,2.10
2018-07-30T18:20:54.548Z,1.90
2018-07-30T18:25:57.945Z,2.20
2018-07-30T18:31:01.436Z,2.20
2018-07-30T18:36:04.841Z,2.15
2018-07-30T18:41:08.236Z,2.30
2018-07-30T18:46:11.678Z,2.30
2018-07-30T18:51:15.065Z,2.22
2018-07-30T18:56:18.444Z,2.40
2018-07-30T19:01:23.901Z,2.10
2018-07-30T19:06:27.269Z,2.27
2018-07-30T19:11:30.706Z,1.87
2018-07-30T19:16:34.090Z,2.00
2018-07-30T19:21:37.464Z,1.90
2018-07-30T19:26:40.881Z,2.10
2018-07-30T19:31:47.752Z,1.98
2018-07-30T19:36:51.150Z,2.15
2018-07-30T19:41:54.544Z,2.12
2018-07-30T19:47:01.170Z,1.80
2018-07-30T19:52:04.534Z,2.22
2018-07-30T19:57:07.930Z,2.00
2018-07-30T20:02:11.982Z,2.00
2018-07-30T20:07:15.338Z,2.20
2018-07-30T20:12:18.783Z,1.82
2018-07-30T20:17:22.068Z,2.08
2018-07-30T20:22:25.521Z,2.10
2018-07-30T20:27:28.873Z,1.95
2018-07-30T20:32:32.230Z,1.92
2018-07-30T20:37:35.639Z,2.02
2018-07-30T20:42:39.050Z,1.90
2018-07-30T20:47:42.402Z,1.82
2018-07-30T20:52:45.764Z,2.30
2018-07-30T20:57:49.266Z,1.90
2018-07-30T21:02:52.642Z,1.80
2018-07-30T21:07:56.129Z,2.02
2018-07-30T21:12:59.597Z,2.22
2018-07-30T21:18:03.912Z,1.90
2018-07-30T21:23:07.289Z,1.92
2018-07-30T21:28:10.405Z,2.12
2018-07-30T21:33:15.833Z,2.05
2018-07-30T21:38:19.214Z,1.95
2018-07-30T21:43:22.617Z,1.93
2018-07-30T21:48:26.071Z,2.20
2018-07-30T21:53:29.654Z,1.85
2018-07-30T21:58:33.104Z,2.12
2018-07-30T22:03:36.493Z,2.17
2018-07-30T22:08:39.890Z,1.83
2018-07-30T22:13:43.278Z,2.00
2018-07-30T22:18:46.726Z,2.33
2018-07-30T22:23:50.117Z,1.90
2018-07-30T22:28:53.647Z,2.17
2018-07-30T22:33:57.245Z,2.40
2018-07-30T22:39:00.690Z,2.30
2018-07-30T22:44:04.090Z,2.13
2018-07-30T22:49:07.474Z,2.30
2018-07-30T22:54:10.831Z,1.90
2018-07-30T22:59:14.246Z,1.97
2018-07-30T23:04:17.635Z,2.33
2018-07-30T23:09:21.002Z,2.10
2018-07-30T23:14:24.355Z,2.37
2018-07-30T23:19:27.422Z,2.30
2018-07-30T23:24:30.805Z,2.07
2018-07-30T23:29:34.171Z,2.40
2018-07-30T23:34:37.654Z,2.03
2018-07-30T23:39:41.026Z,2.40
2018-07-30T23:44:44.456Z,2.20
2018-07-30T23:49:47.823Z,2.17
2018-07-30T23:54:51.183Z,2.30
2018-07-30T23:59:54.545Z,2.03
